createdAt,value
2019-02-22T00:02:25.857Z,47.03
2019-02-22T00:04:59.161Z,49.07
2019-02-22T00:07:32.470Z,51.37
2019-02-22T00:10:06.689Z,50.13
2019-02-22T00:12:39.997Z,47.27
2019-02-22T00:15:13.270Z,51.43
2019-02-22T00:17:46.582Z,50.63
2019-02-22T00:20:19.865Z,51.23
2019-02-22T00:22:53.182Z,48.97
2019-02-22T00:25:26.473Z,50.43
2019-02-22T00:28:00.282Z,51.13
2019-02-22T00:30:33.620Z,53.90
2019-02-22T00:33:06.955Z,51.23
2019-02-22T00:35:40.285Z,54.60
2019-02-22T00:38:13.526Z,51.60
2019-02-22T00:40:46.803Z,52.83
2019-02-22T00:43:20.117Z,55.33
2019-02-22T00:45:53.383Z,52.80
2019-02-22T00:48:26.681Z,50.37
2019-02-22T00:51:00.007Z,49.83
2019-02-22T00:53:33.279Z,48.63
2019-02-22T00:56:06.565Z,45.73
2019-02-22T00:58:39.855Z,49.00
2019-02-22T01:01:13.132Z,43.27
2019-02-22T01:03:46.437Z,46.20
2019-02-22T01:06:19.727Z,49.90
2019-02-22T01:08:52.997Z,46.00
2019-02-22T01:11:26.284Z,49.07
2019-02-22T01:13:59.595Z,53.63
2019-02-22T01:16:32.862Z,47.80
2019-02-22T01:19:06.150Z,48.67
2019-02-22T01:21:39.425Z,49.00
2019-02-22T01:24:12.722Z,43.00
2019-02-22T01:26:46.002Z,48.27
2019-02-22T01:29:19.316Z,45.60
2019-02-22T01:31:52.582Z,43.63
2019-02-22T01:34:25.907Z,45.70
2019-02-22T01:36:59.170Z,43.30
2019-02-22T01:39:32.466Z,44.57
2019-02-22T01:42:05.749Z,45.30
2019-02-22T01:44:39.029Z,47.10
2019-02-22T01:47:12.316Z,48.67
2019-02-22T01:49:45.612Z,52.53
2019-02-22T01:52:18.909Z,52.00
2019-02-22T01:54:52.223Z,49.17
2019-02-22T01:57:25.503Z,53.33
2019-02-22T01:59:58.804Z,52.83
2019-02-22T02:02:32.072Z,53.00
2019-02-22T02:05:05.437Z,47.97
2019-02-22T02:07:38.729Z,52.20
2019-02-22T02:10:12.080Z,41.90
2019-02-22T02:12:45.363Z,46.73
2019-02-22T02:15:18.732Z,49.30
2019-02-22T02:17:52.015Z,46.00
2019-02-22T02:20:25.333Z,43.27
2019-02-22T02:22:58.606Z,46.37
2019-02-22T02:25:31.898Z,46.30
2019-02-22T02:28:07.863Z,47.63
2019-02-22T02:30:41.230Z,43.53
2019-02-22T02:33:14.437Z,47.17
2019-02-22T02:35:47.721Z,45.33
2019-02-22T02:38:20.981Z,47.60
2019-02-22T02:41:06.834Z,51.57
2019-02-22T02:43:29.298Z,43.33
2019-02-22T02:46:02.606Z,47.03
2019-02-22T02:48:35.883Z,47.03
2019-02-22T02:51:09.169Z,41.10
2019-02-22T02:53:42.454Z,45.97
2019-02-22T02:56:17.444Z,43.07
2019-02-22T02:58:50.736Z,41.30
2019-02-22T03:01:24.027Z,45.27
2019-02-22T03:03:57.321Z,41.33
2019-02-22T03:06:34.700Z,42.93
2019-02-22T03:09:09.619Z,41.80
2019-02-22T03:11:42.921Z,44.13
2019-02-22T03:14:16.202Z,40.47
2019-02-22T03:16:49.515Z,40.50
2019-02-22T03:19:22.801Z,40.70
2019-02-22T03:21:56.109Z,39.23
2019-02-22T03:24:29.378Z,38.40
2019-02-22T03:27:02.749Z,40.83
2019-02-22T03:29:36.025Z,39.73
2019-02-22T03:32:09.318Z,41.70
2019-02-22T03:34:42.602Z,39.50
2019-02-22T03:37:15.908Z,41.13
2019-02-22T03:39:49.199Z,41.13
2019-02-22T03:42:22.512Z,43.27
2019-02-22T03:44:55.855Z,43.07
2019-02-22T03:47:29.142Z,44.80
2019-02-22T03:50:02.435Z,44.90
2019-02-22T03:52:47.620Z,42.57
2019-02-22T03:55:20.889Z,42.27
2019-02-22T03:57:54.186Z,39.53
2019-02-22T04:00:27.494Z,39.47
2019-02-22T04:03:00.849Z,39.97
2019-02-22T04:05:34.134Z,39.93
2019-02-22T04:08:08.506Z,42.70
2019-02-22T04:10:41.795Z,44.10
2019-02-22T04:13:15.095Z,35.10
2019-02-22T04:15:48.387Z,42.47
2019-02-22T04:18:21.687Z,40.47
2019-02-22T04:20:54.945Z,39.10
2019-02-22T04:23:28.265Z,44.73
2019-02-22T04:26:01.538Z,37.10
2019-02-22T04:28:34.847Z,39.90
2019-02-22T04:31:08.147Z,38.90
2019-02-22T04:33:41.467Z,41.90
2019-02-22T04:36:14.736Z,43.07
2019-02-22T04:38:48.044Z,40.90
2019-02-22T04:41:21.334Z,41.33
2019-02-22T04:43:54.620Z,38.87
2019-02-22T04:46:27.920Z,40.50
2019-02-22T04:49:01.193Z,40.50
2019-02-22T04:51:34.517Z,41.00
2019-02-22T04:54:07.804Z,42.40
2019-02-22T04:56:41.096Z,40.30
2019-02-22T04:59:14.378Z,39.77
2019-02-22T05:01:47.684Z,38.67
2019-02-22T05:04:20.965Z,44.23
2019-02-22T05:06:54.264Z,40.43
2019-02-22T05:09:27.552Z,38.87
2019-02-22T05:12:10.505Z,39.83
2019-02-22T05:14:35.878Z,40.03
2019-02-22T05:17:09.178Z,42.10
2019-02-22T05:19:42.951Z,39.27
2019-02-22T05:22:16.229Z,43.63
2019-02-22T05:24:49.508Z,41.33
2019-02-22T05:27:24.000Z,44.77
2019-02-22T05:29:57.267Z,43.57
2019-02-22T05:32:30.575Z,43.00
2019-02-22T05:35:03.990Z,44.37
2019-02-22T05:37:37.281Z,45.10
2019-02-22T05:40:10.638Z,47.83
2019-02-22T05:42:43.943Z,43.63
2019-02-22T05:45:17.249Z,42.10
2019-02-22T05:47:50.552Z,47.03
2019-02-22T05:50:23.850Z,44.43
2019-02-22T05:52:57.529Z,45.20
2019-02-22T05:55:30.823Z,44.67
2019-02-22T05:58:04.127Z,47.23
2019-02-22T06:00:37.398Z,49.00
2019-02-22T06:03:10.694Z,49.77
2019-02-22T06:05:44.001Z,50.83
2019-02-22T06:08:17.779Z,46.17
2019-02-22T06:10:51.067Z,48.00
2019-02-22T06:13:24.357Z,48.03
2019-02-22T06:15:57.696Z,56.60
2019-02-22T06:18:30.997Z,52.47
2019-02-22T06:21:04.266Z,54.00
2019-02-22T06:23:37.557Z,49.73
2019-02-22T06:26:10.852Z,62.60
2019-02-22T06:28:44.129Z,52.93
2019-02-22T06:31:17.416Z,56.23
2019-02-22T06:33:50.717Z,56.53
2019-02-22T06:36:24.004Z,58.93
2019-02-22T06:38:57.300Z,68.33
2019-02-22T06:41:30.575Z,64.33
2019-02-22T06:44:04.173Z,63.13
2019-02-22T06:46:37.451Z,61.33
2019-02-22T06:49:10.746Z,57.33
2019-02-22T06:51:44.037Z,54.20
2019-02-22T06:54:17.336Z,50.90
2019-02-22T06:56:50.637Z,49.50
2019-02-22T06:59:23.951Z,52.90
2019-02-22T07:01:57.794Z,52.80
2019-02-22T07:04:31.118Z,47.10
2019-02-22T07:07:04.474Z,47.00
2019-02-22T07:09:37.797Z,49.47
2019-02-22T07:12:12.740Z,47.60
2019-02-22T07:14:46.041Z,48.73
2019-02-22T07:17:19.337Z,45.70
2019-02-22T07:19:52.626Z,46.77
2019-02-22T07:22:25.926Z,45.80
2019-02-22T07:24:59.264Z,44.80
2019-02-22T07:27:32.554Z,48.33
2019-02-22T07:30:08.882Z,47.30
2019-02-22T07:32:42.353Z,51.33
2019-02-22T07:35:15.794Z,49.03
2019-02-22T07:37:49.071Z,54.67
2019-02-22T07:40:22.386Z,48.07
2019-02-22T07:42:55.674Z,54.53
2019-02-22T07:45:29.001Z,51.93
2019-02-22T07:48:02.291Z,50.53
2019-02-22T07:50:36.646Z,48.97
2019-02-22T07:53:09.926Z,51.60
2019-02-22T07:55:43.304Z,52.37
2019-02-22T07:58:16.578Z,48.90
2019-02-22T08:00:49.917Z,45.73
2019-02-22T08:03:23.279Z,44.43
2019-02-22T08:05:56.623Z,46.37
2019-02-22T08:08:29.884Z,46.80
2019-02-22T08:11:03.312Z,44.97
2019-02-22T08:13:36.619Z,44.63
2019-02-22T08:16:09.925Z,43.73
2019-02-22T08:18:43.503Z,42.67
2019-02-22T08:21:16.812Z,43.23
2019-02-22T08:23:50.164Z,45.93
2019-02-22T08:26:23.935Z,43.93
2019-02-22T08:28:57.242Z,44.23
2019-02-22T08:31:30.579Z,45.03
2019-02-22T08:34:03.941Z,46.63
2019-02-22T08:36:38.147Z,45.87
2019-02-22T08:39:12.535Z,46.07
2019-02-22T08:41:45.873Z,48.93
2019-02-22T08:44:19.195Z,45.13
2019-02-22T08:46:52.562Z,46.83
2019-02-22T08:49:25.871Z,44.63
2019-02-22T08:52:00.704Z,45.80
2019-02-22T08:54:34.031Z,40.07
2019-02-22T08:57:07.334Z,42.53
2019-02-22T08:59:40.668Z,40.93
2019-02-22T09:02:13.946Z,40.20
2019-02-22T09:04:47.258Z,38.43
2019-02-22T09:07:20.546Z,36.60
2019-02-22T09:09:53.865Z,38.70
2019-02-22T09:12:27.129Z,38.60
2019-02-22T09:15:00.493Z,39.70
2019-02-22T09:17:33.788Z,31.10
2019-02-22T09:20:09.723Z,31.50
2019-02-22T09:22:43.014Z,32.43
2019-02-22T09:25:16.332Z,34.70
2019-02-22T09:27:49.659Z,34.47
2019-02-22T09:30:22.937Z,32.70
2019-02-22T09:32:56.217Z,31.63
2019-02-22T09:35:29.533Z,34.50
2019-02-22T09:38:04.315Z,29.03
2019-02-22T09:40:37.614Z,29.37
2019-02-22T09:43:11.185Z,27.27
2019-02-22T09:45:44.486Z,25.20
2019-02-22T09:48:17.787Z,27.63
2019-02-22T09:50:51.113Z,24.60
2019-02-22T09:53:24.404Z,24.77
2019-02-22T09:55:57.690Z,26.63
2019-02-22T09:58:31.002Z,24.37
2019-02-22T10:01:04.389Z,22.27
2019-02-22T10:03:37.663Z,23.33
2019-02-22T10:06:10.965Z,19.57
2019-02-22T10:08:44.296Z,18.73
2019-02-22T10:11:18.782Z,19.87
2019-02-22T10:13:52.072Z,21.60
2019-02-22T10:16:27.501Z,21.37
2019-02-22T10:19:00.390Z,23.90
2019-02-22T10:21:33.792Z,19.03
2019-02-22T10:24:07.081Z,22.07
2019-02-22T10:26:40.660Z,20.47
2019-02-22T10:29:13.937Z,21.53
2019-02-22T10:31:47.272Z,16.53
2019-02-22T10:34:20.548Z,18.67
2019-02-22T10:36:53.851Z,20.20
2019-02-22T10:39:27.141Z,17.37
2019-02-22T10:42:00.542Z,12.53
2019-02-22T10:44:33.866Z,14.47
2019-02-22T10:47:07.182Z,14.30
2019-02-22T10:49:40.481Z,14.30
2019-02-22T10:52:13.791Z,12.47
2019-02-22T10:54:47.116Z,14.47
2019-02-22T10:57:20.379Z,13.60
2019-02-22T10:59:53.657Z,17.43
2019-02-22T11:02:26.961Z,14.00
2019-02-22T11:05:00.313Z,11.67
2019-02-22T11:07:33.702Z,17.17
2019-02-22T11:10:09.922Z,8.33
2019-02-22T11:12:43.292Z,7.33
2019-02-22T11:15:16.626Z,4.00
2019-02-22T11:17:49.927Z,10.67
2019-02-22T11:20:23.219Z,7.00
2019-02-22T11:22:56.568Z,5.40
2019-02-22T11:25:29.900Z,2.90
2019-02-22T11:28:03.187Z,3.67
2019-02-22T11:30:36.603Z,3.63
2019-02-22T11:33:10.986Z,2.93
2019-02-22T11:35:44.277Z,4.07
2019-02-22T11:38:17.547Z,3.87
2019-02-22T11:40:50.867Z,3.37
2019-02-22T11:43:24.161Z,5.23
2019-02-22T11:45:57.454Z,5.23
2019-02-22T11:48:30.741Z,4.97
2019-02-22T11:51:04.040Z,3.83
2019-02-22T11:53:37.387Z,5.23
2019-02-22T11:56:11.641Z,4.57
2019-02-22T11:58:44.899Z,4.17
2019-02-22T12:01:18.201Z,4.83
2019-02-22T12:03:51.476Z,4.23
2019-02-22T12:06:24.804Z,5.67
2019-02-22T12:08:58.080Z,4.73
2019-02-22T12:11:31.386Z,5.70
2019-02-22T12:14:04.740Z,5.00
2019-02-22T12:16:38.077Z,6.10
2019-02-22T12:19:11.371Z,5.63
2019-02-22T12:21:44.686Z,5.00
2019-02-22T12:24:17.961Z,4.20
2019-02-22T12:26:51.248Z,5.00
2019-02-22T12:29:24.516Z,7.20
2019-02-22T12:31:57.816Z,4.77
2019-02-22T12:34:32.728Z,3.80
2019-02-22T12:37:06.169Z,3.90
2019-02-22T12:39:39.516Z,5.67
2019-02-22T12:42:12.809Z,5.17
2019-02-22T12:44:46.084Z,3.80
2019-02-22T12:47:19.481Z,5.60
2019-02-22T12:49:52.857Z,6.80
2019-02-22T12:52:26.154Z,5.10
2019-02-22T12:54:59.429Z,4.57
2019-02-22T12:57:32.747Z,6.70
2019-02-22T13:00:12.436Z,5.40
2019-02-22T13:02:45.749Z,4.70
2019-02-22T13:05:21.838Z,6.63
2019-02-22T13:07:55.160Z,8.33
2019-02-22T13:10:28.460Z,7.30
2019-02-22T13:13:01.785Z,7.60
2019-02-22T13:15:35.075Z,5.87
2019-02-22T13:18:08.442Z,4.53
2019-02-22T13:20:41.698Z,5.30
2019-02-22T13:23:14.988Z,6.93
2019-02-22T13:25:49.307Z,6.73
2019-02-22T13:28:22.616Z,7.90
2019-02-22T13:30:55.896Z,6.13
2019-02-22T13:33:29.197Z,7.97
2019-02-22T13:36:02.504Z,5.97
2019-02-22T13:38:35.809Z,6.93
2019-02-22T13:41:09.114Z,6.90
2019-02-22T13:43:42.415Z,9.43
2019-02-22T13:46:15.712Z,7.53
2019-02-22T13:48:49.121Z,8.87
2019-02-22T13:51:22.478Z,11.73
2019-02-22T13:53:55.774Z,6.37
2019-02-22T13:56:30.078Z,6.73
2019-02-22T13:59:03.596Z,6.97
2019-02-22T14:01:36.955Z,4.73
2019-02-22T14:04:10.235Z,5.03
2019-02-22T14:06:43.528Z,4.93
2019-02-22T14:09:16.810Z,3.83
2019-02-22T14:11:50.137Z,4.73
2019-02-22T14:14:23.446Z,5.10
2019-02-22T14:16:56.827Z,5.17
2019-02-22T14:19:30.147Z,6.70
2019-02-22T14:22:04.132Z,4.47
2019-02-22T14:24:37.424Z,5.40
2019-02-22T14:27:10.797Z,7.20
2019-02-22T14:29:44.119Z,5.43
2019-02-22T14:32:17.453Z,5.40
2019-02-22T14:34:50.720Z,5.60
2019-02-22T14:37:24.028Z,7.47
2019-02-22T14:40:03.025Z,5.20
2019-02-22T14:42:32.451Z,5.80
2019-02-22T14:45:08.502Z,6.20
2019-02-22T14:47:41.797Z,5.90
2019-02-22T14:50:18.578Z,12.43
2019-02-22T14:52:51.882Z,8.67
2019-02-22T14:55:25.226Z,6.77
2019-02-22T14:57:58.517Z,8.73
2019-02-22T15:00:32.641Z,7.87
2019-02-22T15:03:05.934Z,11.07
2019-02-22T15:05:39.235Z,8.27
2019-02-22T15:08:12.547Z,7.87
2019-02-22T15:10:45.843Z,7.23
2019-02-22T15:13:19.201Z,10.80
2019-02-22T15:16:03.964Z,8.03
2019-02-22T15:18:37.608Z,6.87
2019-02-22T15:21:10.941Z,7.73
2019-02-22T15:23:44.228Z,8.13
2019-02-22T15:26:17.537Z,9.60
2019-02-22T15:28:50.920Z,10.63
2019-02-22T15:31:24.226Z,10.70
2019-02-22T15:33:57.581Z,7.97
2019-02-22T15:36:30.831Z,12.70
2019-02-22T15:39:05.146Z,9.13
2019-02-22T15:41:38.434Z,9.10
2019-02-22T15:44:12.764Z,7.83
2019-02-22T15:46:46.005Z,7.97
2019-02-22T15:49:19.327Z,7.60
2019-02-22T15:51:52.608Z,7.90
2019-02-22T15:54:25.910Z,12.90
2019-02-22T15:56:59.196Z,9.40
2019-02-22T15:59:32.525Z,9.73
2019-02-22T16:02:06.352Z,9.53
2019-02-22T16:04:45.161Z,8.63
2019-02-22T16:07:18.735Z,9.40
2019-02-22T16:09:52.130Z,9.77
2019-02-22T16:12:25.603Z,7.87
2019-02-22T16:14:59.941Z,7.13
2019-02-22T16:17:33.236Z,8.23
2019-02-22T16:20:08.182Z,6.80
2019-02-22T16:22:41.920Z,8.00
2019-02-22T16:25:19.683Z,7.50
2019-02-22T16:27:50.268Z,9.30
2019-02-22T16:30:26.744Z,9.13
2019-02-22T16:33:00.028Z,9.43
2019-02-22T16:35:33.912Z,7.30
2019-02-22T16:38:07.204Z,6.43
2019-02-22T16:40:40.580Z,8.27
2019-02-22T16:43:13.858Z,7.70
2019-02-22T16:45:47.152Z,9.23
2019-02-22T16:48:20.422Z,7.47
2019-02-22T16:50:53.711Z,8.90
2019-02-22T16:53:27.022Z,9.97
2019-02-22T16:56:00.399Z,10.17
2019-02-22T16:58:33.682Z,9.10
2019-02-22T17:01:07.056Z,10.90
2019-02-22T17:03:40.439Z,10.73
2019-02-22T17:06:13.791Z,10.10
2019-02-22T17:08:47.075Z,12.67
2019-02-22T17:11:21.430Z,10.77
2019-02-22T17:13:54.727Z,16.50
2019-02-22T17:16:28.021Z,11.03
2019-02-22T17:19:02.163Z,14.07
2019-02-22T17:21:35.458Z,15.50
2019-02-22T17:24:08.748Z,23.03
2019-02-22T17:26:42.066Z,17.10
2019-02-22T17:29:15.348Z,15.50
2019-02-22T17:31:48.654Z,14.97
2019-02-22T17:34:21.962Z,13.97
2019-02-22T17:36:55.260Z,13.27
2019-02-22T17:39:28.554Z,15.60
2019-02-22T17:42:01.883Z,12.37
2019-02-22T17:44:35.160Z,17.00
2019-02-22T17:47:10.005Z,19.10
2019-02-22T17:49:43.314Z,18.43
2019-02-22T17:52:19.023Z,11.73
2019-02-22T17:54:52.432Z,11.10
2019-02-22T17:57:25.712Z,13.67
2019-02-22T17:59:59.040Z,11.73
2019-02-22T18:02:33.560Z,11.70
2019-02-22T18:05:08.913Z,12.43
2019-02-22T18:07:42.192Z,11.57
2019-02-22T18:10:15.519Z,11.73
2019-02-22T18:12:52.256Z,11.20
2019-02-22T18:15:25.555Z,10.43
2019-02-22T18:17:58.839Z,12.33
2019-02-22T18:20:33.845Z,12.93
2019-02-22T18:23:07.142Z,14.97
2019-02-22T18:25:40.435Z,15.33
2019-02-22T18:28:13.823Z,12.73
2019-02-22T18:30:47.135Z,11.80
2019-02-22T18:33:20.483Z,14.03
2019-02-22T18:35:55.308Z,19.07
2019-02-22T18:38:28.610Z,18.83
2019-02-22T18:41:01.955Z,13.20
2019-02-22T18:43:35.356Z,15.23
2019-02-22T18:46:08.672Z,14.47
2019-02-22T18:48:41.962Z,14.60
2019-02-22T18:51:15.299Z,14.00
2019-02-22T18:53:48.603Z,13.63
2019-02-22T18:56:21.902Z,16.10
2019-02-22T18:58:55.223Z,13.63
2019-02-22T19:01:28.509Z,13.77
2019-02-22T19:04:01.800Z,13.23
2019-02-22T19:06:35.135Z,13.03
2019-02-22T19:09:08.418Z,11.27
2019-02-22T19:11:41.717Z,12.77
2019-02-22T19:14:15.004Z,13.37
2019-02-22T19:16:48.311Z,14.70
2019-02-22T19:19:21.586Z,12.67
2019-02-22T19:21:54.972Z,15.00
2019-02-22T19:24:28.258Z,13.87
2019-02-22T19:27:01.598Z,13.03
2019-02-22T19:29:34.900Z,11.03
2019-02-22T19:32:08.194Z,11.70
2019-02-22T19:34:41.473Z,11.97
2019-02-22T19:37:14.772Z,10.13
2019-02-22T19:39:48.063Z,11.20
2019-02-22T19:42:22.533Z,11.77
2019-02-22T19:44:55.897Z,11.00
2019-02-22T19:47:29.190Z,8.93
2019-02-22T19:50:02.841Z,10.73
2019-02-22T19:52:36.647Z,13.10
2019-02-22T19:55:15.156Z,11.57
2019-02-22T19:57:48.478Z,12.07
2019-02-22T20:00:21.826Z,10.33
2019-02-22T20:02:55.131Z,9.93
2019-02-22T20:05:28.426Z,10.07
2019-02-22T20:08:01.733Z,9.17
2019-02-22T20:10:35.111Z,9.73
2019-02-22T20:13:09.431Z,10.40
2019-02-22T20:15:42.733Z,10.27
2019-02-22T20:18:16.032Z,10.47
2019-02-22T20:20:49.297Z,10.67
2019-02-22T20:23:22.600Z,10.80
2019-02-22T20:25:55.868Z,10.00
2019-02-22T20:28:29.165Z,12.87
2019-02-22T20:31:02.447Z,13.37
2019-02-22T20:33:35.793Z,13.17
2019-02-22T20:36:09.077Z,11.30
2019-02-22T20:38:42.506Z,12.47
2019-02-22T20:41:15.758Z,12.83
2019-02-22T20:43:49.085Z,12.70
2019-02-22T20:46:22.340Z,12.17
2019-02-22T20:49:00.823Z,13.07
2019-02-22T20:51:31.845Z,11.43
2019-02-22T20:54:05.144Z,11.33
2019-02-22T20:56:38.325Z,12.73
2019-02-22T20:59:11.653Z,13.33
2019-02-22T21:01:44.951Z,13.47
2019-02-22T21:04:18.278Z,12.70
2019-02-22T21:06:51.542Z,14.07
2019-02-22T21:09:24.870Z,12.53
2019-02-22T21:11:58.186Z,10.40
2019-02-22T21:14:31.520Z,12.87
2019-02-22T21:17:05.648Z,9.53
2019-02-22T21:19:38.927Z,7.70
2019-02-22T21:22:12.220Z,8.50
2019-02-22T21:24:45.513Z,6.63
2019-02-22T21:27:18.893Z,9.33
2019-02-22T21:29:52.239Z,9.07
2019-02-22T21:32:25.533Z,8.20
2019-02-22T21:34:58.838Z,7.37
2019-02-22T21:37:32.134Z,6.83
2019-02-22T21:40:08.167Z,7.83
2019-02-22T21:42:41.596Z,5.67
2019-02-22T21:45:16.036Z,7.30
2019-02-22T21:47:54.671Z,6.07
2019-02-22T21:50:24.345Z,5.83
2019-02-22T21:52:57.697Z,5.23
2019-02-22T21:55:31.074Z,5.40
2019-02-22T21:58:04.406Z,5.67
2019-02-22T22:00:37.821Z,4.97
2019-02-22T22:03:11.113Z,7.03
2019-02-22T22:05:44.384Z,7.50
2019-02-22T22:08:17.685Z,6.00
2019-02-22T22:10:50.991Z,5.03
2019-02-22T22:13:24.306Z,6.17
2019-02-22T22:15:57.585Z,8.63
2019-02-22T22:18:38.412Z,6.50
2019-02-22T22:21:05.918Z,5.50
2019-02-22T22:23:39.234Z,5.43
2019-02-22T22:26:12.516Z,6.27
2019-02-22T22:28:45.828Z,6.00
2019-02-22T22:31:19.116Z,8.37
2019-02-22T22:33:52.434Z,6.97
2019-02-22T22:36:25.720Z,6.50
2019-02-22T22:38:59.026Z,6.47
2019-02-22T22:41:32.296Z,6.73
2019-02-22T22:44:06.708Z,6.60
2019-02-22T22:46:39.986Z,6.67
2019-02-22T22:49:13.278Z,7.50
2019-02-22T22:51:46.599Z,7.90
2019-02-22T22:54:19.928Z,8.20
2019-02-22T22:56:53.202Z,8.10
2019-02-22T22:59:26.499Z,7.77
2019-02-22T23:01:59.987Z,7.23
2019-02-22T23:04:33.273Z,7.20
2019-02-22T23:07:06.612Z,9.23
2019-02-22T23:09:39.957Z,7.77
2019-02-22T23:12:13.231Z,7.90
2019-02-22T23:14:46.530Z,7.47
2019-02-22T23:17:19.884Z,7.57
2019-02-22T23:19:53.327Z,9.30
2019-02-22T23:22:26.578Z,8.20
2019-02-22T23:24:59.872Z,7.30
2019-02-22T23:27:33.161Z,8.10
2019-02-22T23:30:08.000Z,7.03
2019-02-22T23:32:41.305Z,9.17
2019-02-22T23:35:14.641Z,8.63
2019-02-22T23:37:47.917Z,9.43
2019-02-22T23:40:21.231Z,10.63
2019-02-22T23:42:54.509Z,9.07
2019-02-22T23:45:27.829Z,9.57
2019-02-22T23:48:01.115Z,9.27
2019-02-22T23:50:34.423Z,10.60
2019-02-22T23:53:07.692Z,9.37
2019-02-22T23:55:41.023Z,11.13
2019-02-22T23:58:14.319Z,11.53
